Latest Weather Observations for Lismore Airport

IDN60801

Issued at 1:32 am EDT Tuesday 9 February 2016 (issued every 30 minutes, with the page automatically refreshed every 10 minutes)

About weather observations | Map of weather stations | Latest weather observations for NSW | Other Formats
Station Details ID: 058214 Name: LISMORE AIRPORT AWS Lat: -28.83 Lon: 153.26 Height: 9.21 m
Data from the previous 72 hours. | See also: Recent months at Lismore Airport
Date/Time
EDT
Temp
°C
App
Temp
°C
Dew
Point
Rel
Hum
%
Delta-T
°C
Wind Press
QNH
hPa
Press
MSL
hPa
Rain
since 9 am
mm
Dir
 
Spd
km/h
Gust
km/h
Spd
kts
Gust
kts
09/01:30am 20.4 23.6 18.9 91 0.9 CALM 0 0 0 0 1015.7 1015.7 0.4
09/01:00am 20.7 24.0 19.2 91 0.9 CALM 0 0 0 0 1016.1 1016.1 0.4
09/12:30am 20.5 21.9 18.6 89 1.2 WSW 9 13 5 7 1016.3 1016.3 0.4
09/12:00am 21.1 23.7 19.2 89 1.2 SSE 4 11 2 6 1016.6 1016.6 0.4
 
Date/Time
EDT
Temp
°C
App
Temp
°C
Dew
Point
Rel
Hum
%
Delta-T
°C
Wind Press
QNH
hPa
Press
MSL
hPa
Rain
since 9 am
mm
Dir
 
Spd
km/h
Gust
km/h
Spd
kts
Gust
kts
08/11:30pm 21.4 24.2 18.8 85 1.6 S 2 7 1 4 1016.7 1016.7 0.0
08/11:00pm 21.6 23.4 18.8 84 1.8 SSW 7 11 4 6 1016.9 1016.9 0.0
08/10:30pm 21.2 22.2 18.6 85 1.6 S 11 15 6 8 1016.9 1016.9 0.0
08/10:00pm 20.8 23.4 18.4 86 1.5 SSW 2 6 1 3 1016.8 1016.8 0.0
08/09:30pm 21.0 22.2 18.2 84 1.7 SSW 9 13 5 7 1016.5 1016.5 0.0
08/09:00pm 21.5 22.1 18.5 83 1.9 S 13 17 7 9 1016.0 1016.0 0.0
08/08:30pm 21.6 22.5 18.4 82 2.0 S 11 17 6 9 1015.6 1015.6 0.0
08/08:00pm 22.4 22.1 18.2 77 2.6 S 17 22 9 12 1015.3 1015.3 0.0
08/07:30pm 23.4 22.5 18.1 72 3.3 SSE 20 28 11 15 1014.9 1014.9 0.0
08/07:00pm 24.4 22.2 17.9 67 4.1 S 26 35 14 19 1014.5 1014.5 0.0
08/06:30pm 25.2 22.5 18.4 66 4.3 S 30 39 16 21 1014.0 1014.0 0.0
08/06:00pm 25.6 23.5 18.0 63 4.8 SSE 26 35 14 19 1014.0 1014.0 0.0
08/05:30pm 25.6 22.6 17.8 62 4.9 SSE 30 39 16 21 1014.0 1014.0 0.0
08/05:00pm 26.8 25.1 18.9 62 5.1 SSE 26 37 14 20 1014.0 1014.0 0.0
08/04:30pm 27.3 25.8 18.6 59 5.6 SSE 24 35 13 19 1014.1 1014.1 0.0
08/04:00pm 27.1 24.8 18.4 59 5.5 SSE 28 43 15 23 1014.2 1014.2 0.0
08/03:30pm 27.4 25.2 18.7 59 5.6 SSE 28 43 15 23 1014.2 1014.2 0.0
08/03:00pm 27.5 26.5 19.6 62 5.1 SSE 24 35 13 19 1014.4 1014.4 0.0
08/02:30pm 28.0 25.9 19.0 58 5.8 SSE 28 35 15 19 1014.6 1014.6 0.0
08/02:00pm 27.7 25.7 18.4 57 5.9 SSE 26 37 14 20 1014.8 1014.8 0.0
08/01:30pm 27.5 26.2 19.0 59 5.5 SSE 24 39 13 21 1015.0 1015.0 0.0
08/01:00pm 27.4 24.9 18.1 57 5.9 SSE 28 39 15 21 1015.3 1015.3 0.0
08/12:30pm 26.2 24.4 17.8 60 5.3 SSE 24 32 13 17 1015.7 1015.7 0.0
08/12:00pm 27.3 25.4 18.6 59 5.6 SSE 26 37 14 20 1016.0 1016.0 0.0
08/11:30am 25.6 24.4 18.5 65 4.5 S 22 28 12 15 1016.2 1016.2 0.0
08/11:00am 26.2 26.7 20.1 69 4.0 SSW 17 24 9 13 1016.4 1016.4 0.0
08/10:30am 25.1 25.2 18.3 66 4.3 SSW 15 20 8 11 1016.6 1016.6 0.0
08/10:00am 24.1 23.5 17.6 67 4.0 SSW 17 26 9 14 1016.5 1016.5 0.0
08/09:30am 22.8 22.6 17.7 73 3.2 SSW 15 22 8 12 1016.5 1016.5 0.0
08/09:00am 21.8 21.8 17.2 75 2.8 SSW 13 19 7 10 1016.3 1016.3 0.0
08/08:30am 20.8 21.6 17.2 80 2.2 S 9 15 5 8 1016.3 1016.3 0.0
08/08:00am 19.8 21.0 17.4 86 1.5 SSE 7 13 4 7 1016.1 1016.1 0.0
08/07:30am 17.7 20.2 17.2 97 0.3 CALM 0 0 0 0 1015.8 1015.8 0.0
08/07:13am 16.3 18.2 15.8 97 0.3 CALM 0 0 0 0 1015.6 1015.6 0.0
08/07:00am 15.4 17.0 14.9 97 0.3 CALM 0 0 0 0 1015.6 1015.6 0.0
08/06:30am 15.0 16.4 14.4 96 0.3 CALM 0 0 0 0 1015.4 1015.4 0.0
08/06:28am 15.0 16.4 14.4 96 0.3 CALM 0 0 0 0 1015.4 1015.4 0.0
08/06:00am 15.1 16.5 14.5 96 0.3 CALM 0 0 0 0 1015.3 1015.3 0.0
08/05:31am 15.4 16.9 14.6 95 0.5 CALM 0 0 0 0 1015.3 1015.3 0.0
08/05:30am 15.7 17.4 15.1 96 0.3 CALM 0 0 0 0 1015.3 1015.3 0.0
08/05:07am 16.1 17.9 15.5 96 0.3 CALM 0 0 0 0 1015.2 1015.2 0.0
08/05:00am 16.0 17.8 15.4 96 0.3 CALM 0 0 0 0 1015.2 1015.2 0.0
08/04:30am 16.5 17.3 15.9 96 0.4 NNE 6 7 3 4 1015.1 1015.1 0.0
08/04:00am 16.4 17.0 15.8 96 0.4 N 7 11 4 6 1015.2 1015.2 0.0
08/03:30am 17.2 19.4 16.6 96 0.4 CALM 0 0 0 0 1015.2 1015.2 0.0
08/03:00am 17.2 18.1 16.7 97 0.3 NNE 7 9 4 5 1015.4 1015.4 0.0
08/02:30am 16.9 19.0 16.3 96 0.4 CALM 0 0 0 0 1015.6 1015.6 0.0
08/02:00am 17.2 19.4 16.6 96 0.4 CALM 0 0 0 0 1015.8 1015.8 0.0
08/01:30am 16.5 18.3 15.4 93 0.6 CALM 0 0 0 0 1016.2 1016.2 0.0
08/01:00am 16.9 18.9 15.9 94 0.6 CALM 0 0 0 0 1016.3 1016.3 0.0
08/12:30am 17.4 18.4 16.3 93 0.7 NNW 6 7 3 4 1016.5 1016.5 0.0
08/12:00am 17.9 18.9 16.9 94 0.6 N 7 9 4 5 1016.5 1016.5 0.0
 
Date/Time
EDT
Temp
°C
App
Temp
°C
Dew
Point
Rel
Hum
%
Delta-T
°C
Wind Press
QNH
hPa
Press
MSL
hPa
Rain
since 9 am
mm
Dir
 
Spd
km/h
Gust
km/h
Spd
kts
Gust
kts
07/11:30pm 17.8 20.0 16.5 92 0.8 CALM 0 0 0 0 1016.4 1016.4 0.0
07/11:00pm 18.5 21.0 17.2 92 0.8 CALM 0 0 0 0 1016.5 1016.5 0.0
07/10:30pm 18.3 20.6 16.8 91 0.9 CALM 0 0 0 0 1016.4 1016.4 0.0
07/10:00pm 19.2 21.8 17.5 90 1.0 CALM 0 0 0 0 1016.3 1016.3 0.0
07/09:30pm 19.4 21.9 17.2 87 1.3 CALM 0 0 0 0 1016.0 1016.0 0.0
07/09:00pm 19.2 21.5 16.8 86 1.4 CALM 0 6 0 3 1015.9 1015.9 0.0
07/08:30pm 20.5 21.7 16.9 80 2.2 S 6 7 3 4 1015.5 1015.5 0.0
07/08:00pm 21.0 21.7 17.0 78 2.4 SSW 9 11 5 6 1015.3 1015.3 0.0
07/07:30pm 22.5 22.8 17.0 71 3.4 SSE 11 15 6 8 1015.0 1015.0 0.0
07/07:00pm 23.6 23.5 16.9 66 4.1 SSE 13 20 7 11 1014.7 1014.7 0.0
07/06:30pm 24.6 22.7 16.8 62 4.8 S 22 32 12 17 1014.3 1014.3 0.0
07/06:00pm 25.3 23.5 17.0 60 5.1 SE 22 30 12 16 1013.8 1013.8 0.0
07/05:30pm 25.7 24.3 17.1 59 5.3 SE 20 30 11 16 1013.7 1013.7 0.0
07/05:00pm 25.9 23.6 16.7 57 5.7 SSE 24 32 13 17 1013.5 1013.5 0.0
07/04:30pm 25.7 22.9 16.3 56 5.8 SSE 26 37 14 20 1013.5 1013.5 0.0
07/04:00pm 26.2 23.3 17.0 57 5.7 SSE 28 39 15 21 1013.4 1013.4 0.0
07/03:30pm 26.2 25.2 18.9 64 4.7 SSE 22 32 12 17 1013.6 1013.6 0.0
07/03:00pm 25.5 24.4 18.7 66 4.3 SSE 22 32 12 17 1014.0 1014.0 0.0
07/02:30pm 25.1 23.5 18.3 66 4.3 SSE 24 32 13 17 1014.2 1014.2 0.0
07/02:00pm 24.8 23.0 18.7 69 3.9 S 26 37 14 20 1014.2 1014.2 0.0
07/01:30pm 24.4 23.0 18.8 71 3.6 SSE 24 33 13 18 1014.2 1014.2 0.0
07/01:00pm 24.6 23.0 19.2 72 3.5 S 26 33 14 18 1014.3 1014.3 0.0
07/12:30pm 24.3 24.7 19.1 73 3.3 SSW 15 24 8 13 1014.5 1014.5 0.0
07/12:21pm 24.0 23.7 18.2 70 3.6 SSW 17 20 9 11 1014.6 1014.6 0.0
07/12:02pm 23.2 22.5 18.3 74 3.1 SSW 19 24 10 13 1015.0 1015.0 0.0
07/12:00pm 23.1 22.8 18.2 74 3.1 SSW 17 24 9 13 1015.0 1015.0 0.0
07/11:30am 22.5 22.6 18.3 77 2.6 SW 15 20 8 11 1015.3 1015.3 0.0
07/11:00am 22.1 22.0 17.9 77 2.6 SW 15 20 8 11 1015.6 1015.6 0.0
07/10:30am 22.0 22.5 18.4 80 2.3 SW 13 17 7 9 1015.3 1015.3 0.0
07/10:00am 21.4 21.4 18.0 81 2.1 SW 15 22 8 12 1015.6 1015.6 0.0
07/09:30am 21.4 22.1 18.0 81 2.1 SSW 11 17 6 9 1015.3 1015.3 0.0
07/09:00am 20.5 20.3 17.7 84 1.7 SW 15 22 8 12 1015.0 1015.0 42.2
07/08:30am 20.6 20.9 18.0 85 1.6 SW 13 20 7 11 1014.9 1014.9 42.2
07/08:00am 20.1 23.1 18.4 90 1.1 CALM 0 0 0 0 1014.8 1014.8 42.2
07/07:30am 19.8 21.0 18.3 91 0.9 SSW 9 15 5 8 1014.8 1014.8 42.2
07/07:00am 19.8 20.6 18.1 90 1.1 SW 11 15 6 8 1014.7 1014.7 42.2
07/06:30am 19.6 21.1 18.1 91 0.9 SSW 7 11 4 6 1013.9 1013.9 42.2
07/06:00am 19.7 20.8 18.0 90 1.0 S 9 15 5 8 1013.5 1013.5 42.2
07/05:30am 19.5 20.3 18.2 92 0.8 SW 11 15 6 8 1013.3 1013.3 42.2
07/05:00am 19.6 19.7 18.3 92 0.8 WSW 15 22 8 12 1013.3 1013.3 42.2
07/04:30am 19.7 20.6 18.5 93 0.7 SW 11 17 6 9 1013.3 1013.3 42.2
07/04:00am 19.9 20.5 18.7 93 0.7 SW 13 19 7 10 1013.0 1013.0 42.2
07/03:30am 20.0 20.8 19.0 94 0.6 SW 13 17 7 9 1012.8 1012.8 42.2
07/03:00am 20.1 20.6 19.3 95 0.5 SSW 15 20 8 11 1012.7 1012.7 42.2
07/02:30am 20.2 21.2 19.4 95 0.5 SSW 13 19 7 10 1013.0 1013.0 42.2
07/02:00am 20.3 21.4 19.6 96 0.4 SSW 13 22 7 12 1013.0 1013.0 42.0
07/01:30am 20.6 21.4 19.9 96 0.4 SSW 15 20 8 11 1013.3 1013.3 41.2
07/01:14am 20.6 21.4 19.9 96 0.4 SSW 15 19 8 10 1013.6 1013.6 40.6
07/01:00am 20.7 22.3 20.0 96 0.4 SSW 11 15 6 8 1013.8 1013.8 40.0
07/12:30am 20.9 23.0 20.2 96 0.4 SSW 9 13 5 7 1014.1 1014.1 35.4
07/12:18am 21.0 22.3 20.2 95 0.5 SW 13 24 7 13 1014.2 1014.2 34.6
07/12:14am 21.0 22.0 20.2 95 0.5 SW 15 24 8 13 1014.3 1014.3 34.2
07/12:00am 21.1 23.7 20.4 96 0.5 SSE 7 11 4 6 1014.1 1014.1 33.6
 
Date/Time
EDT
Temp
°C
App
Temp
°C
Dew
Point
Rel
Hum
%
Delta-T
°C
Wind Press
QNH
hPa
Press
MSL
hPa
Rain
since 9 am
mm
Dir
 
Spd
km/h
Gust
km/h
Spd
kts
Gust
kts
06/11:55pm 21.1 23.7 20.4 96 0.5 SSW 7 11 4 6 1014.3 1014.3 33.4
06/11:46pm 21.1 23.3 20.4 96 0.5 SW 9 15 5 8 1014.2 1014.2 32.6
06/11:30pm 21.1 22.5 20.4 96 0.5 SSW 13 17 7 9 1014.3 1014.3 32.4
06/11:27pm 21.1 22.5 20.4 96 0.5 SSW 13 17 7 9 1014.3 1014.3 32.0
06/11:17pm 21.2 23.4 20.5 96 0.5 SSW 9 15 5 8 1014.2 1014.2 31.4
06/11:00pm 21.2 24.8 20.5 96 0.5 S 2 9 1 5 1014.3 1014.3 31.2
06/10:58pm 21.2 24.8 20.5 96 0.5 S 2 9 1 5 1014.4 1014.4 31.2
06/10:42pm 21.0 23.2 20.3 96 0.4 SSW 9 17 5 9 1014.4 1014.4 29.8
06/10:30pm 21.0 22.0 20.3 96 0.4 SSW 15 19 8 10 1014.3 1014.3 29.6
06/10:24pm 21.1 22.5 20.4 96 0.5 S 13 17 7 9 1014.3 1014.3 29.2
06/10:06pm 21.1 22.9 20.4 96 0.5 S 11 17 6 9 1014.1 1014.1 28.4
06/10:00pm 21.1 22.5 20.4 96 0.5 S 13 19 7 10 1014.0 1014.0 28.2
06/09:49pm 21.2 22.7 20.5 96 0.5 S 13 28 7 15 1014.0 1014.0 27.6
06/09:30pm 21.1 23.3 20.4 96 0.5 SSW 9 11 5 6 1013.9 1013.9 26.2
06/09:00pm 21.0 23.7 20.3 96 0.4 S 6 9 3 5 1013.8 1013.8 25.0
06/08:30pm 21.0 22.0 20.2 95 0.5 S 15 20 8 11 1013.4 1013.4 24.6
06/08:00pm 21.2 21.4 20.2 94 0.6 S 19 28 10 15 1013.1 1013.1 24.4
06/07:55pm 21.3 21.4 20.3 94 0.6 SSW 20 30 11 16 1013.2 1013.2 24.4
06/07:37pm 21.5 21.9 20.7 95 0.5 S 19 28 10 15 1012.9 1012.9 23.8
06/07:30pm 21.7 22.5 20.7 94 0.6 S 17 22 9 12 1012.7 1012.7 23.2
06/07:00pm 22.0 22.7 21.2 95 0.5 S 19 28 10 15 1012.3 1012.3 23.2
06/06:30pm 22.0 23.7 21.0 94 0.7 S 13 19 7 10 1011.9 1011.9 22.6
06/06:13pm 21.9 22.3 20.9 94 0.7 S 20 28 11 15 1011.7 1011.7 22.6
06/06:01pm 22.0 22.5 21.2 95 0.5 S 20 28 11 15 1011.7 1011.7 22.6
06/06:00pm 22.0 22.5 21.2 95 0.5 S 20 28 11 15 1011.7 1011.7 22.6
06/05:50pm 22.0 23.1 21.2 95 0.5 S 17 20 9 11 1011.6 1011.6 21.8
06/05:38pm 21.7 20.8 20.7 94 0.6 S 26 35 14 19 1011.3 1011.3 21.8
06/05:30pm 22.2 22.7 20.8 92 0.9 S 19 35 10 19 1011.2 1011.2 20.8
06/05:00pm 22.5 23.5 21.1 92 0.9 S 17 28 9 15 1011.3 1011.3 20.6
06/04:30pm 23.0 24.5 21.3 90 1.1 SSE 15 24 8 13 1011.2 1011.2 19.6
06/04:00pm 23.4 24.2 21.3 88 1.4 S 19 28 10 15 1011.2 1011.2 19.2
06/03:30pm 24.2 24.9 21.5 85 1.8 S 20 28 11 15 1011.2 1011.2 19.2
06/03:00pm 24.6 24.2 21.7 84 1.9 SSE 26 39 14 21 1011.3 1011.3 19.2
06/02:30pm 23.3 22.6 21.0 87 1.5 S 26 37 14 20 1011.6 1011.6 19.0
06/02:00pm 23.8 23.7 22.2 91 1.1 SSE 26 41 14 22 1011.7 1011.7 19.0
06/01:30pm 24.0 23.6 22.3 90 1.1 S 28 35 15 19 1011.8 1011.8 19.0
06/01:10pm 23.6 25.0 22.6 94 0.7 S 19 24 10 13 1011.9 1011.9 19.0
06/01:00pm 22.9 24.1 22.1 95 0.5 SSE 19 24 10 13 1012.1 1012.1 19.0
06/12:41pm 22.5 23.1 21.1 92 0.9 SE 19 30 10 16 1012.3 1012.3 10.8
06/12:30pm 23.6 24.4 21.7 89 1.3 S 20 30 11 16 1012.3 1012.3 8.8
06/12:21pm 24.0 24.9 22.6 92 0.9 S 22 28 12 15 1012.4 1012.4 8.8
06/12:02pm 22.7 22.1 21.2 91 1.0 S 26 37 14 20 1012.6 1012.6 8.2
06/12:00pm 22.8 22.5 21.1 90 1.1 S 24 35 13 19 1012.6 1012.6 7.8
06/11:39am 23.3 23.8 21.9 92 0.9 SSW 22 33 12 18 1012.6 1012.6 6.6
06/11:30am 22.8 23.6 21.8 94 0.7 SSW 20 26 11 14 1012.7 1012.7 6.4
06/11:21am 22.4 22.9 21.2 93 0.8 SSW 20 32 11 17 1012.7 1012.7 6.2
06/11:14am 23.0 24.8 21.8 93 0.8 SSW 15 24 8 13 1012.7 1012.7 4.4
06/11:00am 22.6 24.8 21.8 95 0.5 SSE 13 20 7 11 1012.9 1012.9 4.2
06/10:52am 22.6 24.2 21.4 93 0.8 SSW 15 20 8 11 1012.9 1012.9 3.0
06/10:37am 22.8 24.0 21.4 92 0.9 SW 17 24 9 13 1012.8 1012.8 1.6
06/10:30am 22.7 24.0 21.7 94 0.7 SSW 17 22 9 12 1012.9 1012.9 1.6
06/10:18am 22.5 23.5 21.7 95 0.5 SSW 19 22 10 12 1013.1 1013.1 1.2
06/10:00am 22.6 22.5 21.4 93 0.8 SSW 24 32 13 17 1012.9 1012.9 0.4
06/09:30am 22.3 21.9 20.9 92 0.9 SSW 24 33 13 18 1012.8 1012.8 0.4
06/09:18am 22.5 22.3 21.3 93 0.8 SSW 24 35 13 19 1012.6 1012.6 0.4
06/09:03am 21.8 21.4 21.0 95 0.5 SSW 24 35 13 19 1012.6 1012.6 0.4
06/09:00am 21.8 21.3 20.8 94 0.6 SSW 24 35 13 19 1012.6 1012.6 11.6
06/08:30am 21.5 21.7 20.5 94 0.6 SW 20 28 11 15 1012.2 1012.2 10.8
06/08:00am 21.2 21.9 20.4 95 0.5 SSW 17 24 9 13 1012.2 1012.2 10.6
06/07:30am 20.9 21.1 20.2 96 0.4 SSW 19 24 10 13 1012.0 1012.0 10.0
06/07:23am 20.8 21.7 20.1 96 0.4 S 15 22 8 12 1011.9 1011.9 9.8
06/07:00am 20.6 21.8 19.9 96 0.4 S 13 19 7 10 1011.6 1011.6 8.6
06/06:51am 20.6 21.8 19.8 95 0.5 SSW 13 19 7 10 1011.5 1011.5 7.0
06/06:30am 20.7 21.1 19.9 95 0.5 SSW 17 24 9 13 1011.2 1011.2 6.2
06/06:11am 20.6 21.4 19.8 95 0.5 SSW 15 19 8 10 1011.1 1011.1 6.2
06/06:00am 20.5 20.8 19.7 95 0.5 SSW 17 20 9 11 1010.8 1010.8 6.2
06/05:59am 20.5 20.8 19.7 95 0.5 SSW 17 20 9 11 1010.8 1010.8 6.2
06/05:36am 20.6 21.4 19.8 95 0.5 SSW 15 20 8 11 1010.7 1010.7 5.6
06/05:30am 20.5 21.2 19.7 95 0.5 S 15 20 8 11 1010.6 1010.6 5.4
06/05:19am 20.5 21.6 19.7 95 0.5 SSW 13 17 7 9 1010.5 1010.5 5.0
06/05:02am 20.5 21.2 19.7 95 0.5 S 15 20 8 11 1010.5 1010.5 4.0
06/05:00am 20.5 20.8 19.7 95 0.5 S 17 24 9 13 1010.5 1010.5 4.0
06/04:44am 20.7 21.0 19.7 94 0.6 SSW 17 24 9 13 1010.2 1010.2 3.6
06/04:30am 20.9 21.0 19.9 94 0.6 SSW 19 24 10 13 1010.2 1010.2 2.6
06/04:00am 21.0 22.3 20.2 95 0.5 SSW 13 20 7 11 1010.4 1010.4 2.6
06/03:30am 21.0 21.5 20.0 94 0.6 SSW 17 26 9 14 1010.5 1010.5 2.6
06/03:00am 21.6 21.7 19.9 90 1.1 SSW 19 24 10 13 1010.7 1010.7 1.8
06/02:30am 21.8 21.7 19.9 89 1.2 SW 20 24 11 13 1010.9 1010.9 1.8
06/02:00am 21.5 21.9 19.8 90 1.1 SSW 17 22 9 12 1010.9 1010.9 1.8

Other Formats:

Comma delimited format used in spreadsheet applications
http://www.bom.gov.au/fwo/IDN60801/IDN60801.94572.axf

JavaScript Object Notation format (JSON) in row-major order
http://www.bom.gov.au/fwo/IDN60801/IDN60801.94572.json